Time;durP1;ratioP1;P1;durP2;ratioP2;P2;SDS_P1;SDS_P2;PMS_P1;PMS_P2;Temp;Humidity;BMP_temperature;BMP_pressure;BME280_temperature;BME280_humidity;BME280_pressure;Samples;Min_cycle;Max_cycle;Signal;HPM_P1;HPM_P2
2022/05/03 00:00:56;;;;;;;6.93;6.22;;;13.00;88.00;;;;;;5006381;28;20304;-87
2022/05/03 00:03:24;;;;;;;7.68;6.43;;;12.90;88.30;;;;;;4982930;28;21021;-87
2022/05/03 00:06:28;;;;;;;7.97;6.60;;;12.90;88.50;;;;;;4975297;28;20026;-87
2022/05/03 00:09:02;;;;;;;7.15;6.25;;;12.80;88.80;;;;;;4937575;28;20034;-87
2022/05/03 00:11:39;;;;;;;7.68;6.60;;;12.80;89.40;;;;;;4990076;28;20037;-87
2022/05/03 00:14:09;;;;;;;7.80;6.25;;;12.80;89.60;;;;;;4977113;28;20030;-87
2022/05/03 00:16:38;;;;;;;8.63;6.82;;;12.80;89.70;;;;;;4990286;28;20074;-88
2022/05/03 00:19:07;;;;;;;8.15;6.40;;;12.80;90.00;;;;;;4972346;28;20061;-87
2022/05/03 00:21:37;;;;;;;7.20;5.95;;;12.80;90.10;;;;;;4975079;28;20027;-88
2022/05/03 00:24:05;;;;;;;7.63;6.53;;;12.80;90.20;;;;;;4976314;28;20029;-88
2022/05/03 00:26:31;;;;;;;8.93;6.38;;;12.70;90.10;;;;;;4992868;28;20053;-87
2022/05/03 00:28:58;;;;;;;7.90;6.20;;;12.70;90.10;;;;;;4974123;28;20435;-87
2022/05/03 00:31:25;;;;;;;7.57;6.10;;;12.60;90.30;;;;;;4970270;28;20038;-87
2022/05/03 00:33:53;;;;;;;7.05;5.68;;;12.60;90.30;;;;;;4993069;28;20114;-86
2022/05/03 00:36:18;;;;;;;6.00;5.40;;;12.50;90.50;;;;;;4974193;28;20050;-87
2022/05/03 00:38:44;;;;;;;5.72;5.22;;;12.50;90.60;;;;;;4972781;28;20027;-88
2022/05/03 00:41:17;;;;;;;7.05;5.50;;;12.40;90.70;;;;;;4989144;28;20119;-88
2022/05/03 00:43:52;;;;;;;8.10;5.95;;;12.40;90.90;;;;;;4977544;28;20476;-86
2022/05/03 00:46:24;;;;;;;6.47;5.80;;;12.40;91.00;;;;;;4977798;28;20105;-86
2022/05/03 00:49:19;;;;;;;6.60;5.93;;;12.30;91.00;;;;;;5003608;28;20021;-86
2022/05/03 00:52:06;;;;;;;6.55;5.60;;;12.30;91.00;;;;;;4988332;28;20038;-87
2022/05/03 00:54:53;;;;;;;8.20;5.82;;;12.30;91.00;;;;;;4978900;28;20042;-88
2022/05/03 00:57:49;;;;;;;6.20;5.60;;;12.30;91.20;;;;;;4989846;28;20053;-87
2022/05/03 01:00:15;;;;;;;6.18;5.57;;;12.20;91.20;;;;;;4972702;28;20029;-87
2022/05/03 01:03:09;;;;;;;6.95;5.63;;;12.20;91.30;;;;;;4964726;28;20306;-87
2022/05/03 01:06:14;;;;;;;6.13;5.05;;;12.20;91.40;;;;;;4983178;28;20026;-88
2022/05/03 01:08:55;;;;;;;6.07;5.47;;;12.20;91.50;;;;;;4994521;28;20058;-87
2022/05/03 01:11:48;;;;;;;6.15;5.55;;;12.10;91.40;;;;;;4974359;28;20399;-87
2022/05/03 01:14:35;;;;;;;6.35;5.38;;;12.10;91.40;;;;;;4990236;28;20030;-87
2022/05/03 01:17:14;;;;;;;5.93;5.32;;;12.10;91.50;;;;;;4962437;28;20086;-87
2022/05/03 01:20:03;;;;;;;6.90;5.57;;;12.10;91.50;;;;;;4967183;28;20018;-88
2022/05/03 01:23:10;;;;;;;6.15;5.55;;;12.00;91.50;;;;;;4975779;28;20382;-88
2022/05/03 01:25:47;;;;;;;5.78;5.28;;;12.00;91.50;;;;;;4966770;28;20022;-86
2022/05/03 01:28:27;;;;;;;5.97;5.38;;;12.00;91.60;;;;;;4974431;28;20156;-87
2022/05/03 01:31:05;;;;;;;8.68;6.03;;;11.90;91.70;;;;;;4969532;28;20026;-89
2022/05/03 01:33:33;;;;;;;7.85;5.35;;;11.90;91.80;;;;;;4988037;28;20015;-87
2022/05/03 01:36:00;;;;;;;7.10;5.80;;;11.90;91.80;;;;;;4982070;28;20077;-87
2022/05/03 01:38:45;;;;;;;6.70;5.50;;;11.90;91.80;;;;;;4988792;28;20470;-88
2022/05/03 01:41:27;;;;;;;6.20;5.60;;;11.80;91.80;;;;;;4988110;28;20085;-88
2022/05/03 01:44:07;;;;;;;7.25;5.78;;;11.80;91.80;;;;;;4986536;28;20439;-88
2022/05/03 01:46:35;;;;;;;6.65;5.95;;;11.70;91.90;;;;;;4960533;28;20037;-88
2022/05/03 01:52:39;;;;;;;10.05;6.00;;;11.60;92.20;;;;;;4993512;28;20073;-87
2022/05/03 01:55:32;;;;;;;6.18;5.40;;;11.60;92.20;;;;;;4964244;28;20213;-88
2022/05/03 01:58:26;;;;;;;6.75;6.05;;;11.60;92.30;;;;;;4974492;28;20026;-88
2022/05/03 02:01:19;;;;;;;6.50;5.65;;;11.60;92.30;;;;;;4970366;28;20026;-88
2022/05/03 02:03:57;;;;;;;6.85;6.13;;;11.50;92.30;;;;;;4975104;28;20026;-87
2022/05/03 02:06:39;;;;;;;9.13;6.32;;;11.50;92.40;;;;;;4967731;28;20026;-89
2022/05/03 02:09:06;;;;;;;;;;;11.40;92.50;;;;;;4975925;28;20076;-87
2022/05/03 02:11:47;;;;;;;6.43;5.82;;;11.40;92.20;;;;;;4988173;28;19918;-86
2022/05/03 02:17:28;;;;;;;7.40;6.25;;;11.30;92.60;;;;;;4986635;28;20034;-86
2022/05/03 02:20:07;;;;;;;7.40;6.47;;;11.30;92.70;;;;;;4990516;28;20038;-87
2022/05/03 02:22:48;;;;;;;6.65;5.75;;;11.30;92.90;;;;;;4990234;28;20026;-88
2022/05/03 02:25:41;;;;;;;7.82;6.90;;;11.30;92.90;;;;;;4971386;28;20149;-87
2022/05/03 02:28:24;;;;;;;5.65;4.60;;;11.20;92.90;;;;;;4985199;28;20026;-86
2022/05/03 02:30:51;;;;;;;7.70;6.63;;;11.20;92.90;;;;;;4995252;28;20043;-86
2022/05/03 02:33:25;;;;;;;8.18;7.20;;;11.20;93.00;;;;;;4985662;28;20027;-87
2022/05/03 02:35:55;;;;;;;7.88;7.00;;;11.20;93.20;;;;;;4991745;28;20030;-87
2022/05/03 02:38:36;;;;;;;9.02;6.53;;;11.20;93.30;;;;;;4973611;28;20026;-87
2022/05/03 02:41:05;;;;;;;6.65;5.95;;;11.10;93.30;;;;;;4971199;28;20073;-89
2022/05/03 02:43:33;;;;;;;6.88;6.15;;;11.10;93.30;;;;;;4975551;28;20018;-88
2022/05/03 02:46:34;;;;;;;7.13;6.38;;;11.00;93.40;;;;;;4986429;28;20026;-87
2022/05/03 02:49:07;;;;;;;8.20;6.65;;;11.00;93.50;;;;;;4948573;28;20146;-87
2022/05/03 02:51:55;;;;;;;8.05;6.68;;;11.00;93.50;;;;;;4969134;28;20035;-87
2022/05/03 02:54:32;;;;;;;7.72;6.40;;;11.00;93.60;;;;;;4974554;28;20031;-88
2022/05/03 02:57:23;;;;;;;7.57;6.78;;;11.00;93.70;;;;;;4980337;28;20057;-87
2022/05/03 03:03:16;;;;;;;7.70;6.93;;;11.00;93.70;;;;;;4987932;28;20030;-87
2022/05/03 03:05:44;;;;;;;9.55;6.85;;;10.90;93.60;;;;;;4981347;28;20042;-88
2022/05/03 03:08:14;;;;;;;7.57;6.78;;;10.90;93.60;;;;;;4980685;28;20054;-88
2022/05/03 03:10:52;;;;;;;8.75;6.95;;;10.80;93.70;;;;;;4977773;28;20034;-88
2022/05/03 03:13:29;;;;;;;8.77;7.47;;;10.80;94.10;;;;;;4980961;28;20081;-88
2022/05/03 03:15:55;;;;;;;9.70;7.20;;;10.80;94.00;;;;;;4979889;28;20047;-86
2022/05/03 03:18:23;;;;;;;7.45;6.38;;;10.70;94.00;;;;;;4986301;28;20022;-86
2022/05/03 03:21:05;;;;;;;7.90;7.10;;;10.70;94.10;;;;;;4996587;28;20150;-87
2022/05/03 03:23:32;;;;;;;8.52;7.13;;;10.70;94.20;;;;;;4983536;28;20065;-87
2022/05/03 03:25:58;;;;;;;8.80;6.82;;;10.70;94.20;;;;;;4979052;28;20414;-86
2022/05/03 03:28:27;;;;;;;7.80;7.03;;;10.60;94.20;;;;;;4982506;28;20026;-87
2022/05/03 03:30:53;;;;;;;7.07;6.38;;;10.60;94.40;;;;;;4995709;28;20110;-89
2022/05/03 03:33:20;;;;;;;8.30;6.30;;;10.60;94.40;;;;;;4981850;28;20026;-86
2022/05/03 03:35:47;;;;;;;10.20;6.68;;;10.60;94.50;;;;;;5144954;23;20363;-91
2022/05/03 03:38:13;;;;;;;8.45;6.40;;;10.50;94.50;;;;;;4996113;28;20079;-89
2022/05/03 03:40:45;;;;;;;6.78;6.07;;;10.50;94.50;;;;;;4986026;28;20204;-89
2022/05/03 03:43:12;;;;;;;9.73;6.43;;;10.50;94.50;;;;;;4992634;28;20029;-89
2022/05/03 03:45:39;;;;;;;8.07;6.50;;;10.40;94.50;;;;;;4996691;28;20045;-91
2022/05/03 03:48:05;;;;;;;7.55;6.75;;;10.40;94.50;;;;;;4997959;28;20113;-92
2022/05/03 03:50:31;;;;;;;7.60;6.15;;;10.30;94.60;;;;;;4995871;28;20371;-91
2022/05/03 03:52:57;;;;;;;8.80;7.05;;;10.30;94.60;;;;;;4995956;28;20102;-91
2022/05/03 03:55:24;;;;;;;6.93;6.22;;;10.20;94.70;;;;;;5000139;28;20860;-91
2022/05/03 03:57:51;;;;;;;7.32;6.18;;;10.20;94.90;;;;;;4992307;28;20179;-90
2022/05/03 04:00:18;;;;;;;11.73;6.90;;;10.20;95.10;;;;;;4997409;28;20030;-90
2022/05/03 04:02:45;;;;;;;8.80;6.80;;;10.10;95.10;;;;;;4993562;28;20037;-91
2022/05/03 04:05:21;;;;;;;7.63;6.90;;;10.20;95.20;;;;;;4995823;28;20565;-91
2022/05/03 04:07:47;;;;;;;10.43;6.85;;;10.10;95.40;;;;;;5006484;28;20027;-91
2022/05/03 04:10:13;;;;;;;8.15;6.55;;;10.10;95.10;;;;;;4986396;28;20037;-90
2022/05/03 04:12:39;;;;;;;8.52;6.80;;;10.10;95.20;;;;;;4994458;28;20399;-91
2022/05/03 04:15:06;;;;;;;8.50;6.97;;;10.10;95.30;;;;;;4996335;28;20091;-91
2022/05/03 04:17:32;;;;;;;8.23;6.95;;;10.10;95.20;;;;;;4996546;28;20034;-91
2022/05/03 04:19:58;;;;;;;8.10;6.50;;;10.10;95.20;;;;;;4995882;28;20022;-92
2022/05/03 04:22:31;;;;;;;9.68;6.95;;;10.00;95.40;;;;;;4994508;28;20044;-91
2022/05/03 04:24:58;;;;;;;9.48;7.68;;;10.00;95.50;;;;;;4997187;28;20513;-91
2022/05/03 04:27:24;;;;;;;9.13;7.00;;;10.00;95.50;;;;;;4997550;28;20129;-90
2022/05/03 04:29:50;;;;;;;8.82;7.05;;;10.00;95.60;;;;;;4995057;28;20123;-91
2022/05/03 04:32:16;;;;;;;10.23;7.75;;;10.00;95.70;;;;;;4993286;28;20032;-91
2022/05/03 04:34:42;;;;;;;10.73;8.38;;;10.00;95.80;;;;;;4994020;28;20022;-91
2022/05/03 04:37:08;;;;;;;11.88;7.85;;;10.00;95.80;;;;;;5010921;28;20506;-91
2022/05/03 04:39:40;;;;;;;11.57;8.50;;;10.10;95.90;;;;;;4986735;28;20066;-91
2022/05/03 04:42:06;;;;;;;12.88;9.88;;;10.10;96.10;;;;;;4993916;28;20022;-90
2022/05/03 04:44:32;;;;;;;10.60;8.20;;;10.10;96.00;;;;;;5010970;28;20112;-91
2022/05/03 04:46:58;;;;;;;11.77;8.57;;;10.10;96.00;;;;;;4995863;28;20049;-92
2022/05/03 04:49:23;;;;;;;11.40;9.00;;;10.10;96.00;;;;;;4992828;28;20041;-90
2022/05/03 04:51:49;;;;;;;9.43;8.38;;;10.20;96.20;;;;;;4995236;28;20033;-89
2022/05/03 04:54:15;;;;;;;11.38;8.73;;;10.20;96.30;;;;;;4995188;28;20037;-90
2022/05/03 04:56:47;;;;;;;14.75;9.40;;;10.30;96.30;;;;;;4995544;28;20033;-92
2022/05/03 04:59:13;;;;;;;12.38;9.77;;;10.40;96.50;;;;;;4988387;28;20049;-92
2022/05/03 05:01:38;;;;;;;12.73;9.35;;;10.40;96.30;;;;;;4993541;28;20494;-91
2022/05/03 05:04:04;;;;;;;15.10;10.02;;;10.50;96.50;;;;;;4994002;28;20089;-91
2022/05/03 05:06:29;;;;;;;12.77;10.18;;;10.50;96.50;;;;;;4991972;28;20030;-91
2022/05/03 05:08:55;;;;;;;12.77;9.82;;;10.60;96.50;;;;;;5011552;28;20037;-90
2022/05/03 05:11:20;;;;;;;12.18;9.35;;;10.70;96.50;;;;;;4989381;28;20052;-89
2022/05/03 05:13:46;;;;;;;13.88;10.10;;;10.80;96.50;;;;;;4993849;28;20026;-90
2022/05/03 05:16:12;;;;;;;12.75;9.88;;;10.80;96.60;;;;;;4990275;28;20030;-89
2022/05/03 05:18:38;;;;;;;15.18;10.75;;;10.90;96.60;;;;;;5006172;28;20032;-89
2022/05/03 05:21:04;;;;;;;19.60;13.10;;;11.00;96.70;;;;;;4994114;28;20029;-89
2022/05/03 05:23:29;;;;;;;13.48;9.80;;;11.10;96.80;;;;;;4991961;28;20540;-88
2022/05/03 05:25:55;;;;;;;11.88;9.65;;;11.10;96.80;;;;;;4985675;28;20036;-90
2022/05/03 05:28:22;;;;;;;13.82;10.25;;;11.20;97.00;;;;;;4994909;28;20102;-90
2022/05/03 05:30:54;;;;;;;12.32;9.38;;;11.30;97.10;;;;;;5192214;23;20018;-88
2022/05/03 05:33:21;;;;;;;12.45;10.02;;;11.30;97.00;;;;;;4977877;28;20064;-90
2022/05/03 05:35:48;;;;;;;11.13;9.57;;;11.40;97.10;;;;;;4974881;28;20030;-90
2022/05/03 05:38:14;;;;;;;14.20;10.35;;;11.40;97.00;;;;;;4974924;28;20073;-89
2022/05/03 05:40:41;;;;;;;10.73;9.48;;;11.40;97.00;;;;;;4966180;28;20446;-89
2022/05/03 05:43:06;;;;;;;12.93;9.32;;;11.40;97.30;;;;;;4970840;28;20037;-90
2022/05/03 05:45:32;;;;;;;11.25;9.52;;;11.60;97.60;;;;;;4975349;28;20018;-91
2022/05/03 05:47:58;;;;;;;13.30;9.52;;;11.60;97.60;;;;;;4974681;28;20045;-89
2022/05/03 05:50:24;;;;;;;12.02;9.60;;;11.60;97.60;;;;;;4973886;28;20089;-89
2022/05/03 05:55:36;;;;;;;12.45;10.02;;;11.70;97.80;;;;;;4991164;28;20100;-90
2022/05/03 05:58:03;;;;;;;13.35;9.88;;;11.70;97.80;;;;;;4972691;28;20502;-90
2022/05/03 06:00:28;;;;;;;11.60;9.73;;;11.70;98.10;;;;;;4973080;28;20023;-90
2022/05/03 06:02:54;;;;;;;14.18;9.50;;;11.80;98.30;;;;;;4973293;28;20032;-90
2022/05/03 06:05:19;;;;;;;11.00;9.32;;;11.90;98.30;;;;;;4973607;28;20038;-89
2022/05/03 06:07:45;;;;;;;10.25;8.73;;;12.00;98.20;;;;;;4968615;28;20031;-86
2022/05/03 06:10:11;;;;;;;11.65;8.95;;;12.00;98.10;;;;;;4974418;28;20038;-88
2022/05/03 06:12:36;;;;;;;12.02;9.57;;;12.10;98.20;;;;;;4976465;28;20109;-88
2022/05/03 06:15:02;;;;;;;12.98;9.30;;;12.30;98.30;;;;;;4981095;28;20113;-88
2022/05/03 06:17:28;;;;;;;11.45;9.32;;;12.40;98.10;;;;;;4974804;28;20368;-87
2022/05/03 06:19:53;;;;;;;10.20;8.65;;;12.50;97.90;;;;;;4975243;28;20022;-88
2022/05/03 06:22:20;;;;;;;10.52;8.93;;;12.60;97.90;;;;;;4975848;28;20019;-88
2022/05/03 06:24:47;;;;;;;10.27;8.82;;;12.60;97.90;;;;;;4969488;28;20108;-88
2022/05/03 06:27:14;;;;;;;10.05;8.90;;;12.70;98.10;;;;;;4974534;28;20036;-88
2022/05/03 06:29:39;;;;;;;10.68;8.50;;;12.90;98.00;;;;;;4981312;28;20101;-89
2022/05/03 06:32:05;;;;;;;11.50;9.15;;;13.00;98.10;;;;;;4990928;28;20062;-88
2022/05/03 06:34:31;;;;;;;11.25;8.85;;;13.10;98.30;;;;;;4973429;28;20071;-88
2022/05/03 06:36:58;;;;;;;9.80;8.73;;;13.20;98.10;;;;;;4973313;28;20026;-89
2022/05/03 06:39:24;;;;;;;10.32;8.95;;;13.30;97.90;;;;;;4980330;28;20167;-90
2022/05/03 06:41:50;;;;;;;10.35;8.48;;;13.40;97.70;;;;;;4981365;28;20034;-92
2022/05/03 06:44:16;;;;;;;12.30;9.02;;;13.40;97.70;;;;;;4985424;28;20057;-88
2022/05/03 06:46:42;;;;;;;8.73;7.68;;;13.50;97.90;;;;;;4973260;28;20025;-89
2022/05/03 07:00:33;;;;;;;;;;;;;;;;;;;;;
2022/05/03 07:08:17;;;;;;;8.98;7.20;;;15.40;96.50;;;;;;5029883;28;20046;-86
2022/05/03 07:24:50;;;;;;;11.02;6.70;;;17.40;95.40;;;;;;5221619;22;20050;-91
2022/05/03 07:27:16;;;;;;;7.57;6.72;;;17.70;95.00;;;;;;5010331;28;20390;-89
2022/05/03 07:29:42;;;;;;;9.02;7.32;;;18.10;94.60;;;;;;4987172;28;20022;-87
2022/05/03 07:32:07;;;;;;;10.35;7.60;;;18.40;94.50;;;;;;4996188;28;20045;-90
2022/05/03 07:34:33;;;;;;;8.63;7.20;;;18.70;94.10;;;;;;4993517;28;20029;-88
2022/05/03 07:37:02;;;;;;;8.05;6.65;;;19.00;93.90;;;;;;4990748;28;20014;-92
2022/05/03 07:42:44;;;;;;;9.73;6.93;;;19.40;92.80;;;;;;5021494;28;20054;-91
2022/05/03 07:45:10;;;;;;;7.75;6.10;;;19.50;92.50;;;;;;4995833;28;20045;-88
2022/05/03 07:47:36;;;;;;;10.60;5.90;;;19.70;92.30;;;;;;4988049;28;20088;-89
2022/05/03 07:50:04;;;;;;;9.15;6.18;;;19.90;91.70;;;;;;4993239;28;20227;-87
2022/05/03 07:52:30;;;;;;;7.47;5.50;;;20.20;91.60;;;;;;4997206;28;20112;-87
2022/05/03 07:54:56;;;;;;;6.35;5.75;;;20.50;91.20;;;;;;5013105;28;20054;-89
2022/05/03 07:57:22;;;;;;;5.70;5.10;;;20.80;90.80;;;;;;4995832;28;20038;-91
2022/05/03 07:59:48;;;;;;;10.13;5.65;;;21.00;89.70;;;;;;5009266;28;20025;-91
2022/05/03 08:02:13;;;;;;;11.15;5.43;;;21.20;89.00;;;;;;4992541;28;20036;-92
2022/05/03 08:04:42;;;;;;;5.35;4.85;;;21.40;89.10;;;;;;4991900;28;20022;-91
2022/05/03 08:07:07;;;;;;;5.80;4.57;;;21.60;87.50;;;;;;4998033;28;20053;-91
2022/05/03 08:09:43;;;;;;;5.18;4.32;;;21.90;86.00;;;;;;5021598;28;20034;-91
2022/05/03 08:12:34;;;;;;;5.95;5.35;;;22.20;84.20;;;;;;5006651;28;20043;-91
2022/05/03 08:15:00;;;;;;;5.35;4.90;;;22.30;82.90;;;;;;4997033;28;20502;-90
2022/05/03 08:17:27;;;;;;;5.18;4.68;;;22.60;82.60;;;;;;4987563;28;20105;-88
2022/05/03 08:19:53;;;;;;;5.88;4.78;;;22.80;81.40;;;;;;5000487;28;20037;-90
2022/05/03 08:22:20;;;;;;;5.43;4.90;;;22.80;80.70;;;;;;5018743;28;20034;-92
2022/05/03 08:24:45;;;;;;;5.38;4.88;;;22.90;80.10;;;;;;4993359;28;20033;-89
2022/05/03 08:28:20;;;;;;;6.93;5.18;;;23.10;79.40;;;;;;5019768;28;20020;-91
2022/05/03 08:31:07;;;;;;;;;;;;;;;;;;;;;
2022/05/03 08:43:44;;;;;;;7.00;5.38;;;22.80;76.50;;;;;;5010804;28;20041;-86
2022/05/03 08:47:30;;;;;;;7.05;6.20;;;22.80;76.60;;;;;;4963999;28;20052;-85
2022/05/03 08:50:48;;;;;;;6.22;5.63;;;22.70;76.30;;;;;;4979044;28;20035;-85
2022/05/03 08:53:45;;;;;;;6.45;5.82;;;22.80;75.80;;;;;;4993983;28;20117;-85
2022/05/03 09:48:03;;;;;;;5.43;4.90;;;32.00;54.00;;;;;;4952509;28;20039;-86
2022/05/03 09:50:47;;;;;;;5.20;4.70;;;33.00;52.40;;;;;;4949522;29;20432;-87
2022/05/03 09:56:31;;;;;;;5.80;5.25;;;33.90;49.70;;;;;;4997107;28;20038;-85
2022/05/03 09:59:33;;;;;;;5.68;5.18;;;34.30;49.40;;;;;;4914388;29;20040;-85
2022/05/03 10:01:59;;;;;;;5.80;5.20;;;34.70;48.30;;;;;;4910073;28;20038;-83
2022/05/03 10:04:25;;;;;;;9.13;6.20;;;35.10;47.70;;;;;;4969175;28;20081;-86
2022/05/03 10:06:50;;;;;;;6.65;6.05;;;35.20;46.70;;;;;;4977008;28;20026;-84
2022/05/03 10:09:16;;;;;;;6.25;5.65;;;34.30;46.00;;;;;;4988345;28;20054;-85
2022/05/03 10:11:46;;;;;;;6.07;5.47;;;33.60;46.60;;;;;;4990823;28;20050;-84
2022/05/03 10:14:11;;;;;;;5.50;4.65;;;33.60;47.30;;;;;;4972643;28;20033;-87
2022/05/03 10:22:07;;;;;;;6.47;5.03;;;35.40;45.10;;;;;;4989642;28;20040;-85
2022/05/03 10:24:52;;;;;;;5.82;5.20;;;35.50;44.10;;;;;;4972928;28;20026;-84
2022/05/03 10:27:24;;;;;;;5.35;4.85;;;33.30;45.40;;;;;;4990451;28;20057;-85
2022/05/03 10:30:18;;;;;;;5.90;5.40;;;31.70;46.70;;;;;;4967944;28;20064;-83
2022/05/03 10:32:44;;;;;;;6.90;6.30;;;30.50;48.20;;;;;;4971088;28;20125;-89
2022/05/03 10:35:33;;;;;;;7.43;5.72;;;30.90;47.90;;;;;;4974559;28;20133;-88
2022/05/03 10:37:59;;;;;;;8.38;5.68;;;31.80;47.20;;;;;;4992339;28;20050;-88
2022/05/03 10:40:38;;;;;;;21.42;17.38;;;30.30;48.00;;;;;;4968161;28;20128;-88
2022/05/03 10:46:23;;;;;;;7.35;6.38;;;28.20;50.20;;;;;;5079489;23;20463;-89
2022/05/03 10:49:30;;;;;;;7.93;6.10;;;27.40;51.30;;;;;;4980625;28;20022;-89
2022/05/03 10:52:13;;;;;;;7.18;5.68;;;26.70;52.30;;;;;;4914663;29;20032;-88
2022/05/03 10:55:07;;;;;;;6.55;5.85;;;26.80;53.00;;;;;;5026768;28;20077;-88
2022/05/03 10:58:14;;;;;;;6.05;5.43;;;26.40;53.10;;;;;;5010431;28;20018;-88
2022/05/03 11:01:24;;;;;;;7.82;5.82;;;26.00;53.40;;;;;;4996657;28;20139;-88
2022/05/03 11:04:18;;;;;;;7.47;5.47;;;25.70;53.80;;;;;;4993959;28;20018;-88
2022/05/03 11:06:55;;;;;;;7.55;5.32;;;25.40;53.40;;;;;;4991806;28;20033;-88
2022/05/03 11:09:50;;;;;;;6.68;4.60;;;25.10;53.90;;;;;;4991893;28;20100;-88
2022/05/03 11:13:23;;;;;;;6.78;4.60;;;24.70;54.20;;;;;;4982101;28;20081;-88
2022/05/03 11:16:24;;;;;;;7.18;5.55;;;24.60;54.60;;;;;;4882138;29;20040;-88
2022/05/03 11:19:24;;;;;;;7.32;4.90;;;24.30;55.20;;;;;;4915362;29;20405;-88
2022/05/03 11:21:53;;;;;;;7.85;5.50;;;24.10;55.70;;;;;;4900345;29;20049;-88
2022/05/03 11:24:19;;;;;;;6.25;5.65;;;24.20;56.10;;;;;;4967748;28;20034;-89
2022/05/03 11:26:46;;;;;;;5.70;5.20;;;24.40;56.00;;;;;;5012535;28;20029;-89
2022/05/03 11:29:13;;;;;;;5.80;5.20;;;24.50;56.20;;;;;;4994693;28;20041;-89
2022/05/03 11:31:46;;;;;;;7.18;5.35;;;24.70;55.60;;;;;;4995565;28;20037;-89
2022/05/03 11:34:12;;;;;;;5.30;4.80;;;24.80;55.20;;;;;;4995204;28;20230;-88
2022/05/03 11:36:38;;;;;;;5.28;4.78;;;24.80;55.70;;;;;;4996352;28;20018;-89
2022/05/03 11:39:03;;;;;;;6.60;5.50;;;24.90;56.00;;;;;;4995098;28;20029;-89
2022/05/03 11:41:32;;;;;;;6.47;4.72;;;25.00;55.80;;;;;;4989016;28;20026;-90
2022/05/03 11:44:59;;;;;;;5.25;4.75;;;25.00;55.70;;;;;;4998637;28;20026;-88
2022/05/03 11:47:49;;;;;;;6.22;5.07;;;24.80;56.00;;;;;;4958886;28;20037;-89
2022/05/03 11:56:49;;;;;;;5.82;5.32;;;23.90;56.70;;;;;;5000797;28;20080;-88
2022/05/03 12:00:11;;;;;;;6.30;5.55;;;23.60;56.90;;;;;;4997599;28;20026;-88
2022/05/03 12:03:29;;;;;;;10.15;5.45;;;23.40;57.20;;;;;;5008471;28;20057;-88
2022/05/03 12:05:56;;;;;;;8.65;5.00;;;23.10;57.40;;;;;;4964402;28;20504;-89
2022/05/03 12:08:23;;;;;;;5.80;4.90;;;23.10;57.70;;;;;;4997228;28;20037;-85
2022/05/03 12:10:50;;;;;;;8.43;4.80;;;23.20;57.50;;;;;;5011824;28;20114;-86
2022/05/03 12:13:27;;;;;;;9.02;4.68;;;23.40;57.50;;;;;;5013834;28;20022;-86
2022/05/03 12:16:01;;;;;;;5.68;4.80;;;23.50;57.30;;;;;;4994330;28;20018;-87
2022/05/03 12:18:36;;;;;;;5.70;4.78;;;23.70;56.80;;;;;;4994380;28;20018;-87
2022/05/03 12:21:06;;;;;;;5.65;5.10;;;23.80;56.90;;;;;;4994990;28;20037;-88
2022/05/03 12:23:34;;;;;;;5.90;4.90;;;24.00;56.80;;;;;;4994698;28;20294;-86
2022/05/03 12:26:13;;;;;;;4.32;3.92;;;24.30;57.10;;;;;;4996617;28;20026;-85
2022/05/03 12:28:43;;;;;;;4.85;3.50;;;24.50;56.60;;;;;;5012317;28;20029;-85
2022/05/03 12:31:12;;;;;;;7.38;4.13;;;24.70;55.80;;;;;;5012361;28;20030;-85
2022/05/03 12:33:54;;;;;;;3.65;3.35;;;24.80;55.50;;;;;;5012787;28;20014;-85
2022/05/03 12:36:30;;;;;;;4.20;3.80;;;25.10;55.80;;;;;;4994737;28;20080;-85
2022/05/03 12:38:56;;;;;;;3.30;2.80;;;25.30;55.30;;;;;;4995463;28;20195;-85
2022/05/03 12:41:31;;;;;;;3.30;1.95;;;25.20;54.50;;;;;;5011991;28;20053;-85
2022/05/03 12:44:02;;;;;;;4.18;2.10;;;25.00;53.20;;;;;;5012999;28;20057;-86
2022/05/03 12:46:29;;;;;;;1.87;1.77;;;24.90;53.30;;;;;;4992578;28;20038;-86
2022/05/03 12:48:55;;;;;;;2.20;2.00;;;25.00;53.00;;;;;;4997075;28;20071;-85
2022/05/03 12:51:21;;;;;;;2.05;1.95;;;25.00;52.40;;;;;;5025948;28;20359;-87
2022/05/03 12:53:47;;;;;;;3.97;2.88;;;25.00;52.20;;;;;;4994407;28;20022;-88
2022/05/03 12:58:58;;;;;;;5.95;3.33;;;24.90;53.10;;;;;;5016747;28;20108;-86
2022/05/03 13:01:24;;;;;;;4.68;3.42;;;24.80;53.40;;;;;;4995842;28;20108;-87
2022/05/03 13:03:50;;;;;;;3.90;3.50;;;24.70;53.50;;;;;;4993931;28;20030;-88
2022/05/03 13:06:17;;;;;;;3.53;3.20;;;24.70;53.60;;;;;;4995215;28;20032;-87
2022/05/03 13:08:44;;;;;;;3.80;3.50;;;24.60;53.40;;;;;;5012565;28;20072;-88
2022/05/03 13:11:10;;;;;;;3.55;1.95;;;24.50;53.30;;;;;;4992419;28;20033;-88
2022/05/03 13:13:36;;;;;;;3.40;2.33;;;24.30;52.70;;;;;;4992459;28;20076;-86
2022/05/03 13:16:02;;;;;;;3.88;2.58;;;24.20;52.30;;;;;;5008683;28;20030;-87
2022/05/03 13:18:28;;;;;;;3.90;2.35;;;24.00;52.50;;;;;;5007581;28;20045;-90
2022/05/03 13:20:54;;;;;;;4.13;3.30;;;23.80;52.60;;;;;;5023584;28;20065;-89
2022/05/03 13:23:20;;;;;;;11.05;3.70;;;23.60;53.10;;;;;;4994808;28;20064;-89
2022/05/03 13:25:46;;;;;;;6.85;3.40;;;23.50;53.80;;;;;;4993324;28;20022;-88
2022/05/03 13:28:12;;;;;;;5.70;3.08;;;23.30;54.20;;;;;;4993885;28;20489;-87
2022/05/03 13:30:38;;;;;;;3.75;2.65;;;23.00;54.50;;;;;;4994676;28;20061;-87
2022/05/03 13:33:03;;;;;;;4.95;2.50;;;22.70;54.80;;;;;;4992787;28;20022;-87
2022/05/03 13:40:58;;;;;;;2.60;1.75;;;21.80;55.80;;;;;;4998513;28;22348;-87
2022/05/03 13:43:23;;;;;;;1.95;1.77;;;21.60;55.70;;;;;;4983765;28;20042;-87
2022/05/03 13:45:49;;;;;;;1.75;1.65;;;21.40;55.50;;;;;;4992522;28;20030;-87
2022/05/03 13:48:15;;;;;;;3.60;1.83;;;21.30;55.40;;;;;;4992739;28;20116;-87
2022/05/03 13:50:43;;;;;;;1.60;1.50;;;21.10;55.30;;;;;;5009814;28;20022;-88
2022/05/03 13:53:10;;;;;;;3.55;1.48;;;20.90;55.20;;;;;;5012333;28;20505;-87
2022/05/03 13:55:40;;;;;;;3.67;1.85;;;20.80;55.20;;;;;;4992115;28;20052;-87
2022/05/03 13:58:06;;;;;;;1.38;1.27;;;20.70;55.50;;;;;;5023669;28;20371;-88
2022/05/03 14:00:32;;;;;;;1.83;1.45;;;20.60;55.50;;;;;;4992566;28;20068;-87
2022/05/03 14:02:58;;;;;;;2.45;1.60;;;20.60;55.30;;;;;;5011439;28;20531;-87
2022/05/03 14:05:24;;;;;;;3.20;1.30;;;20.60;55.60;;;;;;5011273;28;20045;-86
2022/05/03 14:07:51;;;;;;;2.67;1.40;;;20.60;55.40;;;;;;4991247;28;20052;-87
2022/05/03 14:10:16;;;;;;;1.63;1.52;;;20.60;55.10;;;;;;4993961;28;20080;-87
2022/05/03 14:12:42;;;;;;;4.25;1.55;;;20.60;55.00;;;;;;5004436;28;20057;-86
2022/05/03 14:15:08;;;;;;;2.08;1.55;;;20.60;55.00;;;;;;4990182;28;20058;-87
2022/05/03 14:17:33;;;;;;;3.72;1.52;;;20.70;54.90;;;;;;5008955;28;20025;-87
2022/05/03 14:19:59;;;;;;;3.33;1.73;;;20.60;54.60;;;;;;4994145;28;20029;-87
2022/05/03 14:22:25;;;;;;;3.38;2.22;;;20.40;54.70;;;;;;4977172;28;20034;-87
2022/05/03 14:24:52;;;;;;;2.58;1.77;;;20.20;55.20;;;;;;4988711;28;20034;-87
2022/05/03 14:27:18;;;;;;;1.92;1.70;;;20.20;55.80;;;;;;4991785;28;20144;-87
2022/05/03 14:29:44;;;;;;;2.50;2.00;;;20.10;56.10;;;;;;4987754;28;20030;-86
2022/05/03 14:32:09;;;;;;;2.05;1.58;;;20.00;56.50;;;;;;4987695;28;20022;-87
2022/05/03 14:34:35;;;;;;;4.50;1.75;;;19.90;56.70;;;;;;4989495;28;20026;-87
2022/05/03 14:37:01;;;;;;;1.70;1.60;;;19.90;57.00;;;;;;5002855;28;20068;-87
2022/05/03 14:39:27;;;;;;;2.35;1.63;;;19.90;57.60;;;;;;4984231;28;20453;-86
2022/05/03 14:41:52;;;;;;;3.60;1.70;;;19.90;57.50;;;;;;4989265;28;20042;-86
2022/05/03 14:44:19;;;;;;;2.10;1.80;;;20.00;57.70;;;;;;4988201;28;20112;-87
2022/05/03 14:46:45;;;;;;;2.38;2.17;;;20.00;57.60;;;;;;4987624;28;20627;-87
2022/05/03 14:49:10;;;;;;;2.63;2.40;;;20.10;57.80;;;;;;4997113;28;20075;-87
2022/05/03 14:51:37;;;;;;;2.53;2.25;;;20.10;58.10;;;;;;4992739;28;20482;-86
2022/05/03 14:54:03;;;;;;;3.05;2.33;;;20.10;58.30;;;;;;4974994;28;20029;-84
2022/05/03 15:04:42;;;;;;;3.92;2.25;;;20.00;59.10;;;;;;5016353;28;20056;-87
2022/05/03 15:07:07;;;;;;;4.03;1.98;;;20.00;58.90;;;;;;4996558;28;20026;-87
2022/05/03 15:09:33;;;;;;;2.63;2.42;;;20.00;59.20;;;;;;4998262;28;20121;-88
2022/05/03 15:11:59;;;;;;;2.28;2.08;;;20.10;59.30;;;;;;4993416;28;20045;-88
2022/05/03 15:14:24;;;;;;;3.13;2.20;;;20.20;59.40;;;;;;5004187;28;20108;-87
2022/05/03 15:16:50;;;;;;;4.40;2.08;;;20.20;59.40;;;;;;4996311;28;20490;-88
2022/05/03 15:19:16;;;;;;;3.60;1.95;;;20.30;59.30;;;;;;4990638;28;20033;-89
2022/05/03 15:21:41;;;;;;;2.97;1.80;;;20.40;59.30;;;;;;4993613;28;20026;-88
2022/05/03 15:26:51;;;;;;;4.45;1.80;;;20.60;59.30;;;;;;5011341;28;20033;-88
2022/05/03 15:29:16;;;;;;;5.43;2.08;;;20.70;58.80;;;;;;5010543;28;20022;-88
2022/05/03 15:31:43;;;;;;;1.85;1.75;;;20.80;59.10;;;;;;4993109;28;20069;-88
2022/05/03 15:34:10;;;;;;;3.90;1.80;;;20.80;58.80;;;;;;4992909;28;20037;-87
2022/05/03 15:39:04;;;;;;;3.67;1.80;;;20.70;58.50;;;;;;5004125;28;20062;-89
2022/05/03 15:41:31;;;;;;;3.08;1.52;;;20.70;58.60;;;;;;4994741;28;20133;-89
2022/05/03 15:44:02;;;;;;;2.45;1.50;;;20.80;58.60;;;;;;4998990;28;20091;-88